createdAt,value
2023-01-20T00:01:12.195Z,9.26
2023-01-20T00:03:40.398Z,9.22
2023-01-20T00:06:08.993Z,9.17
2023-01-20T00:08:38.629Z,9.06
2023-01-20T00:11:07.054Z,9.08
2023-01-20T00:13:35.012Z,8.95
2023-01-20T00:16:03.470Z,8.71
2023-01-20T00:18:31.755Z,8.78
2023-01-20T00:21:04.586Z,8.80
2023-01-20T00:23:33.387Z,8.84
2023-01-20T00:26:05.331Z,8.89
2023-01-20T00:28:33.253Z,8.73
2023-01-20T00:31:11.847Z,8.83
2023-01-20T00:33:39.833Z,8.89
2023-01-20T00:36:08.753Z,8.85
2023-01-20T00:38:36.708Z,8.87
2023-01-20T00:41:06.351Z,8.83
2023-01-20T00:43:34.733Z,8.85
2023-01-20T00:46:02.708Z,8.79
2023-01-20T00:48:30.652Z,8.85
2023-01-20T00:50:58.845Z,8.84
2023-01-20T00:53:26.967Z,8.91
2023-01-20T00:55:54.907Z,8.92
2023-01-20T00:58:24.495Z,8.91
2023-01-20T01:00:56.204Z,8.89
2023-01-20T01:03:24.534Z,8.89
2023-01-20T01:05:52.422Z,8.59
2023-01-20T01:08:20.408Z,8.69
2023-01-20T01:10:48.305Z,8.68
2023-01-20T01:13:16.227Z,8.57
2023-01-20T01:15:50.975Z,8.52
2023-01-20T01:18:19.039Z,8.47
2023-01-20T01:20:46.952Z,8.60
2023-01-20T01:23:14.863Z,8.52
2023-01-20T01:25:42.776Z,8.57
2023-01-20T01:28:10.650Z,8.58
2023-01-20T01:30:38.565Z,8.63
2023-01-20T01:33:07.974Z,8.61
2023-01-20T01:35:35.899Z,8.61
2023-01-20T01:38:03.826Z,8.42
2023-01-20T01:40:31.777Z,8.46
2023-01-20T01:42:59.672Z,8.49
2023-01-20T01:45:29.906Z,8.49
2023-01-20T01:48:04.266Z,8.48
2023-01-20T01:50:38.591Z,8.47
2023-01-20T01:53:08.854Z,8.55
2023-01-20T01:55:40.759Z,8.26
2023-01-20T01:58:13.665Z,8.23
2023-01-20T02:00:42.400Z,8.38
2023-01-20T02:03:10.884Z,8.13
2023-01-20T02:05:40.831Z,7.83
2023-01-20T02:08:09.178Z,8.14
2023-01-20T02:10:37.095Z,8.04
2023-01-20T02:13:06.149Z,8.12
2023-01-20T02:15:41.242Z,8.26
2023-01-20T02:18:29.804Z,8.28
2023-01-20T02:21:25.663Z,8.24
2023-01-20T02:24:20.646Z,8.13
2023-01-20T02:27:09.527Z,8.25
2023-01-20T02:30:09.902Z,8.36
2023-01-20T02:32:47.723Z,8.14
2023-01-20T02:35:25.426Z,8.24
2023-01-20T02:38:00.947Z,8.07
2023-01-20T02:40:32.806Z,8.07
2023-01-20T02:43:10.091Z,8.13
2023-01-20T02:45:44.244Z,8.10
2023-01-20T02:48:19.114Z,8.05
2023-01-20T02:50:55.079Z,7.92
2023-01-20T02:53:26.318Z,7.92
2023-01-20T02:55:56.338Z,7.85
2023-01-20T02:58:31.887Z,7.81
2023-01-20T03:01:04.693Z,7.85
2023-01-20T03:03:38.868Z,7.95
2023-01-20T03:06:13.264Z,7.94
2023-01-20T03:08:42.290Z,8.05
2023-01-20T03:11:10.721Z,8.11
2023-01-20T03:13:44.123Z,8.21
2023-01-20T03:16:15.983Z,8.24
2023-01-20T03:18:46.040Z,8.06
2023-01-20T03:21:14.942Z,7.98
2023-01-20T03:23:46.556Z,8.09
2023-01-20T03:26:16.194Z,8.07
2023-01-20T03:28:45.424Z,8.12
2023-01-20T03:31:17.089Z,8.15
2023-01-20T03:33:48.173Z,8.11
2023-01-20T03:36:17.650Z,7.95
2023-01-20T03:38:46.672Z,7.93
2023-01-20T03:41:21.751Z,7.84
2023-01-20T03:43:57.084Z,7.99
2023-01-20T03:46:31.978Z,8.04
2023-01-20T03:49:09.867Z,7.88
2023-01-20T03:51:53.129Z,7.81
2023-01-20T03:54:25.618Z,7.67
2023-01-20T03:57:04.110Z,7.60
2023-01-20T03:59:35.482Z,7.40
2023-01-20T04:02:07.274Z,7.59
2023-01-20T04:04:41.085Z,7.48
2023-01-20T04:07:15.212Z,7.52
2023-01-20T04:09:48.756Z,7.85
2023-01-20T04:12:16.787Z,7.98
2023-01-20T04:14:44.714Z,8.03
2023-01-20T04:17:14.066Z,8.16
2023-01-20T04:19:43.357Z,8.34
2023-01-20T04:22:18.787Z,8.46
2023-01-20T04:24:52.586Z,8.49
2023-01-20T04:27:20.521Z,8.53
2023-01-20T04:29:48.404Z,8.65
2023-01-20T04:32:16.471Z,8.74
2023-01-20T04:34:45.763Z,8.56
2023-01-20T04:37:13.672Z,8.67
2023-01-20T04:39:41.579Z,8.85
2023-01-20T04:42:10.767Z,8.91
2023-01-20T04:44:38.749Z,8.99
2023-01-20T04:47:07.034Z,8.86
2023-01-20T04:49:35.610Z,8.83
2023-01-20T04:52:05.247Z,8.79
2023-01-20T04:54:33.179Z,9.13
2023-01-20T04:57:01.137Z,9.21
2023-01-20T04:59:29.027Z,9.30
2023-01-20T05:01:57.020Z,9.26
2023-01-20T05:04:25.005Z,9.04
2023-01-20T05:06:52.922Z,8.98
2023-01-20T05:09:22.349Z,8.88
2023-01-20T05:11:50.284Z,8.83
2023-01-20T05:14:18.181Z,8.89
2023-01-20T05:16:47.182Z,8.99
2023-01-20T05:19:15.166Z,8.95
2023-01-20T05:21:43.655Z,8.87
2023-01-20T05:24:11.651Z,9.03
2023-01-20T05:26:42.961Z,9.05
2023-01-20T05:29:10.889Z,9.18
2023-01-20T05:31:43.274Z,9.16
2023-01-20T05:34:11.757Z,9.03
2023-01-20T05:36:39.845Z,9.00
2023-01-20T05:39:07.761Z,8.96
2023-01-20T05:41:35.639Z,8.91
2023-01-20T05:44:04.929Z,8.75
2023-01-20T05:46:32.822Z,8.89
2023-01-20T05:49:02.705Z,9.00
2023-01-20T05:51:30.725Z,9.04
2023-01-20T05:53:58.651Z,9.07
2023-01-20T05:56:26.731Z,9.14
2023-01-20T05:58:56.170Z,9.00
2023-01-20T06:01:25.675Z,8.96
2023-01-20T06:03:53.601Z,8.83
2023-01-20T06:06:21.530Z,8.77
2023-01-20T06:08:49.692Z,8.68
2023-01-20T06:11:18.089Z,8.71
2023-01-20T06:13:48.111Z,8.85
2023-01-20T06:16:16.089Z,8.83
2023-01-20T06:18:45.506Z,8.98
2023-01-20T06:21:13.473Z,9.20
2023-01-20T06:23:41.834Z,9.30
2023-01-20T06:26:14.045Z,9.33
2023-01-20T06:28:42.196Z,9.30
2023-01-20T06:31:11.915Z,9.42
2023-01-20T06:33:40.054Z,9.38
2023-01-20T06:36:11.059Z,9.45
2023-01-20T06:38:38.956Z,9.58
2023-01-20T06:41:10.890Z,9.70
2023-01-20T06:43:40.226Z,9.84
2023-01-20T06:46:11.077Z,9.79
2023-01-20T06:48:39.100Z,9.87
2023-01-20T06:51:11.738Z,9.89
2023-01-20T06:53:40.009Z,10.06
2023-01-20T06:56:08.637Z,10.12
2023-01-20T06:58:36.565Z,10.18
2023-01-20T07:01:09.947Z,10.19
2023-01-20T07:03:38.457Z,10.20
2023-01-20T07:06:15.596Z,10.30
2023-01-20T07:08:44.935Z,10.35
2023-01-20T07:11:13.477Z,10.52
2023-01-20T07:13:41.487Z,10.47
2023-01-20T07:16:12.013Z,10.34
2023-01-20T07:18:41.744Z,10.22
2023-01-20T07:21:12.994Z,10.30
2023-01-20T07:23:41.271Z,10.49
2023-01-20T07:26:10.649Z,10.53
2023-01-20T07:28:39.246Z,10.73
2023-01-20T07:31:08.952Z,10.86
2023-01-20T07:33:37.738Z,11.02
2023-01-20T07:36:08.002Z,11.20
2023-01-20T07:38:38.187Z,11.35
2023-01-20T07:41:10.841Z,11.44
2023-01-20T07:43:38.841Z,11.51
2023-01-20T07:46:07.136Z,11.63
2023-01-20T07:48:35.326Z,11.73
2023-01-20T07:51:05.848Z,11.80
2023-01-20T07:53:35.537Z,11.88
2023-01-20T07:56:06.146Z,12.03
2023-01-20T07:58:34.829Z,12.09
2023-01-20T08:01:09.423Z,12.12
2023-01-20T08:03:38.200Z,12.21
2023-01-20T08:06:08.056Z,12.27
2023-01-20T08:08:36.422Z,12.44
2023-01-20T08:11:07.921Z,12.67
2023-01-20T08:13:36.258Z,12.75
2023-01-20T08:16:06.444Z,12.76
2023-01-20T08:18:35.381Z,12.81
2023-01-20T08:21:06.498Z,12.91
2023-01-20T08:23:34.699Z,13.06
2023-01-20T08:26:04.606Z,13.16
2023-01-20T08:28:35.606Z,13.38
2023-01-20T08:31:08.803Z,13.46
2023-01-20T08:33:37.265Z,13.48
2023-01-20T08:36:07.388Z,13.73
2023-01-20T08:38:35.796Z,13.73
2023-01-20T08:41:06.957Z,13.88
2023-01-20T08:43:36.414Z,14.04
2023-01-20T08:46:06.603Z,14.19
2023-01-20T08:48:34.726Z,14.16
2023-01-20T08:51:05.555Z,14.17
2023-01-20T08:53:33.634Z,14.20
2023-01-20T08:56:03.048Z,14.12
2023-01-20T08:58:31.929Z,14.08
2023-01-20T09:01:01.903Z,14.07
2023-01-20T09:03:32.243Z,14.20
2023-01-20T09:06:03.336Z,14.16
2023-01-20T09:08:31.471Z,14.22
2023-01-20T09:11:03.798Z,14.19
2023-01-20T09:13:31.810Z,14.23
2023-01-20T09:16:01.331Z,14.28
2023-01-20T09:18:29.452Z,14.34
2023-01-20T09:20:58.837Z,14.32
2023-01-20T09:23:26.834Z,14.32
2023-01-20T09:25:54.777Z,14.29
2023-01-20T09:28:22.693Z,14.45
2023-01-20T09:30:50.740Z,14.52
2023-01-20T09:33:20.064Z,14.72
2023-01-20T09:35:55.384Z,14.84
2023-01-20T09:38:40.638Z,15.09
2023-01-20T09:41:35.477Z,15.22
2023-01-20T09:44:18.103Z,15.40
2023-01-20T09:47:23.316Z,15.36
2023-01-20T09:50:24.667Z,15.45
2023-01-20T09:53:02.615Z,15.65
2023-01-20T09:55:36.331Z,15.67
2023-01-20T09:58:12.271Z,15.63
2023-01-20T10:00:43.759Z,15.62
2023-01-20T10:03:17.444Z,15.83
2023-01-20T10:05:50.916Z,15.88
2023-01-20T10:08:24.442Z,16.11
2023-01-20T10:10:58.270Z,16.07
2023-01-20T10:13:30.291Z,16.16
2023-01-20T10:15:58.576Z,16.28
2023-01-20T10:18:34.311Z,16.64
2023-01-20T10:21:11.462Z,16.99
2023-01-20T10:23:47.844Z,17.28
2023-01-20T10:26:22.873Z,17.32
2023-01-20T10:28:57.589Z,17.45
2023-01-20T10:31:29.026Z,17.42
2023-01-20T10:34:01.785Z,17.20
2023-01-20T10:36:32.251Z,16.94
2023-01-20T10:39:05.607Z,17.04
2023-01-20T10:41:39.353Z,17.20
2023-01-20T10:44:12.525Z,17.10
2023-01-20T10:46:55.296Z,17.09
2023-01-20T10:49:40.300Z,17.04
2023-01-20T10:52:30.754Z,16.74
2023-01-20T10:55:08.787Z,16.50
2023-01-20T10:57:38.349Z,16.39
2023-01-20T11:00:08.942Z,16.39
2023-01-20T11:02:38.192Z,16.21
2023-01-20T11:05:18.186Z,16.26
2023-01-20T11:07:48.776Z,16.13
2023-01-20T11:10:18.959Z,16.07
2023-01-20T11:12:51.288Z,16.04
2023-01-20T11:15:21.659Z,15.92
2023-01-20T11:18:21.331Z,15.87
2023-01-20T11:20:51.536Z,16.02
2023-01-20T11:23:23.809Z,16.00
2023-01-20T11:25:57.592Z,16.14
2023-01-20T11:28:26.661Z,16.11
2023-01-20T11:30:56.888Z,16.22
2023-01-20T11:33:28.262Z,16.22
2023-01-20T11:36:01.328Z,16.01
2023-01-20T11:38:32.654Z,16.03
2023-01-20T11:41:00.621Z,16.06
2023-01-20T11:43:33.257Z,16.03
2023-01-20T11:46:22.570Z,15.96
2023-01-20T11:48:50.982Z,15.84
2023-01-20T11:51:25.361Z,15.87
2023-01-20T11:54:08.149Z,15.82
2023-01-20T11:56:42.028Z,15.92
2023-01-20T11:59:22.345Z,15.94
2023-01-20T12:01:57.844Z,15.94
2023-01-20T12:04:45.548Z,16.03
2023-01-20T12:07:19.025Z,15.86
2023-01-20T12:09:52.436Z,15.92
2023-01-20T12:12:29.119Z,15.97
2023-01-20T12:15:03.954Z,15.90
2023-01-20T12:17:46.977Z,16.00
2023-01-20T12:20:25.326Z,16.18
2023-01-20T12:23:06.991Z,16.15
2023-01-20T12:25:43.399Z,16.08
2023-01-20T12:28:17.858Z,15.81
2023-01-20T12:30:52.593Z,15.70
2023-01-20T12:33:25.943Z,15.52
2023-01-20T12:36:38.631Z,15.59
2023-01-20T12:39:26.243Z,15.43
2023-01-20T12:42:20.164Z,15.07
2023-01-20T12:44:52.401Z,15.42
2023-01-20T12:47:35.857Z,15.23
2023-01-20T12:50:21.220Z,15.12
2023-01-20T12:53:03.503Z,15.12
2023-01-20T12:55:41.260Z,14.88
2023-01-20T12:58:22.348Z,14.74
2023-01-20T13:01:19.115Z,14.72
2023-01-20T13:04:06.219Z,14.72
2023-01-20T13:06:43.383Z,14.61
2023-01-20T13:09:25.631Z,14.52
2023-01-20T13:12:07.433Z,14.61
2023-01-20T13:14:43.164Z,14.57
2023-01-20T13:17:33.004Z,14.59
2023-01-20T13:20:04.842Z,14.67
2023-01-20T13:22:32.866Z,14.44
2023-01-20T13:25:04.821Z,14.37
2023-01-20T13:27:36.963Z,14.19
2023-01-20T13:30:08.554Z,14.06
2023-01-20T13:32:46.205Z,14.07
2023-01-20T13:35:48.909Z,14.15
2023-01-20T13:38:22.586Z,13.98
2023-01-20T13:40:55.751Z,13.95
2023-01-20T13:43:48.412Z,13.92
2023-01-20T13:46:44.774Z,13.86
2023-01-20T13:49:28.993Z,13.99
2023-01-20T13:51:57.346Z,13.97
2023-01-20T13:54:46.306Z,13.86
2023-01-20T13:57:47.213Z,13.95
2023-01-20T14:00:16.970Z,13.83
2023-01-20T14:02:47.526Z,13.55
2023-01-20T14:05:31.345Z,13.59
2023-01-20T14:08:00.026Z,13.59
2023-01-20T14:10:28.591Z,13.46
2023-01-20T14:12:56.614Z,13.33
2023-01-20T14:15:33.320Z,13.27
2023-01-20T14:18:03.380Z,13.26
2023-01-20T14:20:31.962Z,13.04
2023-01-20T14:23:26.552Z,13.05
2023-01-20T14:26:03.718Z,13.04
2023-01-20T14:28:32.102Z,12.93
2023-01-20T14:31:17.832Z,12.90
2023-01-20T14:33:54.267Z,12.83
2023-01-20T14:36:24.376Z,12.85
2023-01-20T14:38:58.365Z,12.87
2023-01-20T14:41:29.865Z,12.94
2023-01-20T14:43:58.594Z,12.66
2023-01-20T14:46:28.260Z,12.60
2023-01-20T14:48:58.184Z,12.48
2023-01-20T14:51:26.502Z,12.48
2023-01-20T14:54:29.430Z,12.29
2023-01-20T14:56:58.097Z,12.27
2023-01-20T14:59:26.708Z,12.06
2023-01-20T15:01:56.644Z,12.36
2023-01-20T15:04:26.061Z,12.41
2023-01-20T15:06:57.282Z,12.52
2023-01-20T15:09:31.364Z,12.45
2023-01-20T15:12:17.618Z,12.22
2023-01-20T15:15:01.694Z,12.04
2023-01-20T15:17:29.567Z,11.95
2023-01-20T15:19:58.878Z,11.85
2023-01-20T15:22:28.411Z,11.79
2023-01-20T15:24:56.447Z,11.89
2023-01-20T15:27:28.065Z,11.95
2023-01-20T15:30:16.232Z,11.85
2023-01-20T15:32:44.257Z,11.87
2023-01-20T15:35:20.057Z,11.86
2023-01-20T15:37:48.360Z,11.83
2023-01-20T15:40:18.546Z,11.71
2023-01-20T15:42:46.897Z,11.57
2023-01-20T15:45:16.034Z,11.52
2023-01-20T15:47:45.044Z,11.63
2023-01-20T15:50:17.877Z,11.59
2023-01-20T15:52:46.040Z,11.60
2023-01-20T15:55:15.389Z,11.70
2023-01-20T15:57:44.204Z,11.75
2023-01-20T16:00:23.096Z,11.59
2023-01-20T16:02:51.230Z,11.65
2023-01-20T16:05:20.565Z,11.49
2023-01-20T16:07:49.821Z,11.48
2023-01-20T16:10:18.873Z,11.37
2023-01-20T16:12:47.903Z,11.40
2023-01-20T16:15:17.816Z,11.54
2023-01-20T16:17:46.087Z,11.51
2023-01-20T16:20:21.597Z,11.45
2023-01-20T16:22:49.532Z,11.59
2023-01-20T16:25:17.748Z,11.66
2023-01-20T16:27:45.770Z,11.77
2023-01-20T16:30:17.034Z,11.74
2023-01-20T16:32:46.385Z,11.80
2023-01-20T16:35:15.187Z,11.59
2023-01-20T16:37:46.616Z,11.55
2023-01-20T16:40:16.684Z,11.65
2023-01-20T16:42:44.746Z,11.58
2023-01-20T16:45:24.439Z,11.61
2023-01-20T16:47:52.634Z,11.56
2023-01-20T16:50:20.841Z,11.50
2023-01-20T16:52:50.168Z,11.56
2023-01-20T16:55:18.287Z,11.68
2023-01-20T16:57:46.179Z,11.65
2023-01-20T17:00:18.471Z,11.70
2023-01-20T17:02:50.499Z,11.53
2023-01-20T17:05:22.321Z,11.47
2023-01-20T17:07:51.677Z,11.26
2023-01-20T17:10:20.568Z,11.42
2023-01-20T17:12:49.071Z,11.44
2023-01-20T17:15:17.103Z,11.38
2023-01-20T17:17:48.486Z,11.32
2023-01-20T17:20:17.670Z,11.19
2023-01-20T17:22:46.021Z,11.41
2023-01-20T17:25:17.933Z,11.47
2023-01-20T17:27:46.112Z,11.50
2023-01-20T17:30:15.403Z,11.50
2023-01-20T17:32:47.322Z,11.45
2023-01-20T17:35:16.498Z,10.99
2023-01-20T17:37:44.917Z,10.98
2023-01-20T17:40:16.149Z,10.91
2023-01-20T17:42:44.751Z,10.60
2023-01-20T17:45:13.389Z,10.09
2023-01-20T17:47:41.631Z,9.81
2023-01-20T17:50:10.777Z,9.84
2023-01-20T17:52:38.719Z,9.68
2023-01-20T17:55:07.357Z,9.44
2023-01-20T17:57:37.192Z,9.39
2023-01-20T18:00:06.715Z,9.45
2023-01-20T18:02:34.655Z,9.33
2023-01-20T18:05:03.110Z,9.17
2023-01-20T18:07:31.079Z,9.08
2023-01-20T18:09:59.256Z,9.16
2023-01-20T18:12:27.377Z,9.12
2023-01-20T18:14:58.714Z,9.12
2023-01-20T18:17:26.787Z,8.96
2023-01-20T18:19:54.858Z,8.86
2023-01-20T18:22:22.841Z,8.86
2023-01-20T18:24:50.779Z,8.77
2023-01-20T18:27:19.250Z,8.73
2023-01-20T18:29:47.222Z,8.42
2023-01-20T18:32:16.609Z,8.34
2023-01-20T18:34:44.598Z,8.05
2023-01-20T18:37:12.532Z,7.95
2023-01-20T18:39:40.919Z,7.88
2023-01-20T18:42:09.021Z,7.77
2023-01-20T18:44:37.216Z,7.54
2023-01-20T18:47:05.201Z,7.21
2023-01-20T18:49:34.482Z,7.13
2023-01-20T18:52:02.557Z,7.15
2023-01-20T18:54:33.441Z,6.92
2023-01-20T18:57:01.814Z,6.91
2023-01-20T18:59:30.948Z,6.70
2023-01-20T19:01:59.535Z,6.79
2023-01-20T19:04:28.095Z,6.50
2023-01-20T19:06:58.522Z,6.51
2023-01-20T19:09:26.901Z,6.26
2023-01-20T19:11:55.489Z,6.51
2023-01-20T19:14:24.047Z,6.36
2023-01-20T19:16:52.262Z,6.33
2023-01-20T19:19:20.172Z,6.14
2023-01-20T19:21:51.712Z,5.94
2023-01-20T19:24:23.130Z,5.77
2023-01-20T19:26:51.510Z,5.92
2023-01-20T19:29:20.652Z,5.99
2023-01-20T19:31:49.256Z,5.83
2023-01-20T19:34:18.355Z,5.81
2023-01-20T19:36:47.194Z,5.68
2023-01-20T19:39:16.334Z,5.73
2023-01-20T19:41:47.113Z,5.53
2023-01-20T19:44:16.071Z,5.64
2023-01-20T19:46:46.200Z,5.39
2023-01-20T19:49:15.078Z,5.59
2023-01-20T19:51:44.377Z,5.64
2023-01-20T19:54:15.611Z,5.50
2023-01-20T19:56:45.083Z,5.47
2023-01-20T19:59:15.745Z,5.55
2023-01-20T20:01:45.276Z,5.53
2023-01-20T20:04:15.064Z,5.69
2023-01-20T20:06:47.727Z,5.61
2023-01-20T20:09:18.421Z,5.65
2023-01-20T20:11:49.473Z,5.70
2023-01-20T20:14:20.796Z,5.56
2023-01-20T20:16:49.775Z,5.71
2023-01-20T20:19:20.554Z,5.66
2023-01-20T20:21:49.158Z,5.70
2023-01-20T20:24:19.117Z,5.84
2023-01-20T20:26:49.364Z,5.73
2023-01-20T20:29:20.294Z,5.70
2023-01-20T20:31:48.736Z,5.75
2023-01-20T20:34:19.008Z,5.52
2023-01-20T20:36:47.641Z,5.47
2023-01-20T20:39:17.614Z,5.46
2023-01-20T20:41:46.349Z,5.34
2023-01-20T20:44:16.044Z,5.11
2023-01-20T20:46:44.624Z,4.99
2023-01-20T20:49:15.281Z,4.94
2023-01-20T20:51:43.346Z,4.88
2023-01-20T20:54:13.145Z,4.80
2023-01-20T20:56:41.226Z,4.65
2023-01-20T20:59:10.603Z,4.75
2023-01-20T21:01:40.685Z,4.39
2023-01-20T21:04:09.110Z,4.48
2023-01-20T21:06:37.086Z,4.47
2023-01-20T21:09:05.100Z,4.41
2023-01-20T21:11:33.254Z,4.48
2023-01-20T21:14:01.174Z,4.49
2023-01-20T21:16:29.173Z,4.67
2023-01-20T21:18:59.504Z,4.56
2023-01-20T21:21:29.111Z,4.46
2023-01-20T21:23:58.365Z,4.31
2023-01-20T21:26:30.175Z,4.15
2023-01-20T21:29:01.753Z,4.08
2023-01-20T21:31:31.108Z,4.13
2023-01-20T21:34:01.386Z,4.11
2023-01-20T21:36:30.558Z,3.84
2023-01-20T21:38:59.675Z,3.94
2023-01-20T21:41:27.612Z,4.09
2023-01-20T21:44:12.823Z,3.76
2023-01-20T21:46:41.475Z,3.83
2023-01-20T21:49:28.264Z,3.73
2023-01-20T21:52:13.712Z,3.69
2023-01-20T21:54:41.876Z,3.59
2023-01-20T21:57:10.274Z,3.47
2023-01-20T21:59:38.552Z,3.51
2023-01-20T22:02:06.937Z,3.54
2023-01-20T22:04:36.298Z,3.49
2023-01-20T22:07:04.192Z,3.54
2023-01-20T22:09:32.103Z,3.60
2023-01-20T22:12:00.218Z,3.58
2023-01-20T22:14:28.112Z,3.63
2023-01-20T22:16:56.006Z,3.47
2023-01-20T22:19:24.328Z,3.17
2023-01-20T22:21:53.696Z,3.40
2023-01-20T22:24:21.610Z,3.35
2023-01-20T22:26:49.979Z,3.56
2023-01-20T22:29:18.577Z,3.66
2023-01-20T22:31:47.111Z,3.56
2023-01-20T22:34:15.115Z,3.41
2023-01-20T22:36:43.535Z,3.75
2023-01-20T22:39:13.596Z,3.87
2023-01-20T22:41:41.975Z,3.68
2023-01-20T22:44:10.533Z,3.36
2023-01-20T22:46:38.465Z,3.41
2023-01-20T22:49:06.407Z,3.12
2023-01-20T22:51:34.389Z,3.04
2023-01-20T22:54:03.165Z,3.04
2023-01-20T22:56:33.444Z,3.16
2023-01-20T22:59:01.933Z,2.92
2023-01-20T23:01:32.030Z,2.99
2023-01-20T23:04:02.078Z,2.95
2023-01-20T23:06:32.681Z,3.01
2023-01-20T23:09:01.590Z,3.05
2023-01-20T23:11:29.632Z,3.00
2023-01-20T23:13:58.901Z,2.98
2023-01-20T23:16:26.879Z,3.00
2023-01-20T23:18:54.863Z,2.87
2023-01-20T23:21:24.411Z,2.98
2023-01-20T23:23:54.781Z,2.97
2023-01-20T23:26:24.219Z,2.96
2023-01-20T23:28:53.716Z,2.99
2023-01-20T23:31:24.586Z,3.01
2023-01-20T23:33:54.179Z,2.99
2023-01-20T23:36:23.829Z,3.05
2023-01-20T23:38:53.709Z,3.04
2023-01-20T23:41:21.701Z,2.91
2023-01-20T23:43:49.619Z,3.11
2023-01-20T23:46:17.602Z,3.01
2023-01-20T23:48:47.856Z,3.26
2023-01-20T23:51:15.898Z,3.22
2023-01-20T23:53:44.002Z,3.35
2023-01-20T23:56:13.535Z,3.25
2023-01-20T23:58:41.526Z,3.03
